Time;durP1;ratioP1;P1;durP2;ratioP2;P2;SDS_P1;SDS_P2;PMS_P1;PMS_P2;Temp;Humidity;BMP_temperature;BMP_pressure;BME280_temperature;BME280_humidity;BME280_pressure;Samples;Min_cycle;Max_cycle;Signal;HPM_P1;HPM_P2
2024/02/03 00:02:53;;;;;;;9.10;4.00;;;;;;;7.18;58.50;99351.56;104547;1253;70768;-56
2024/02/03 00:06:04;;;;;;;11.70;4.30;;;;;;;7.18;58.43;99348.95;105115;1251;73127;-57
2024/02/03 00:15:21;;;;;;;15.20;4.50;;;;;;;7.15;59.96;99335.27;104658;1253;74783;-57
2024/02/03 00:21:36;;;;;;;11.70;4.10;;;;;;;7.24;60.07;99327.65;105067;1251;74506;-57
2024/02/03 00:27:34;;;;;;;13.80;3.90;;;;;;;7.28;59.38;99319.67;104801;1252;60558;-56
2024/02/03 00:30:01;;;;;;;;;;;;;;;7.33;59.32;99316.35;104903;1253;73534;-56
2024/02/03 00:35:52;;;;;;;12.10;3.80;;;;;;;7.38;59.21;99306.40;105303;1253;73515;-57
2024/02/03 00:38:25;;;;;;;11.70;4.80;;;;;;;7.46;59.00;99302.98;104802;1252;61022;-58
2024/02/03 00:44:40;;;;;;;15.20;4.40;;;;;;;7.51;58.97;99290.98;104640;1256;74947;-57
2024/02/03 00:47:10;;;;;;;13.20;4.30;;;;;;;7.45;59.37;99292.39;105119;1256;69248;-55
2024/02/03 00:50:21;;;;;;;18.40;4.90;;;;;;;7.62;58.63;99285.70;104734;1253;71496;-57
2024/02/03 00:52:54;;;;;;;17.60;5.00;;;;;;;7.51;59.26;99279.45;104618;1254;60848;-56
2024/02/03 00:56:02;;;;;;;19.70;4.80;;;;;;;7.47;59.72;99273.14;104289;1256;60502;-57
2024/02/03 00:58:39;;;;;;;11.40;4.50;;;;;;;7.35;60.21;99272.02;104369;1253;73168;-56
2024/02/03 01:01:12;;;;;;;16.20;4.80;;;;;;;7.55;59.78;99264.11;104318;1256;70221;-57
2024/02/03 01:04:17;;;;;;;16.90;4.90;;;;;;;7.51;59.60;99269.85;104476;1253;72171;-57
2024/02/03 01:17:18;;;;;;;11.10;3.90;;;;;;;7.74;59.32;99266.73;104600;1253;69955;-58
2024/02/03 01:23:41;;;;;;;16.40;5.50;;;;;;;7.82;59.16;99253.71;104397;1269;59829;-58
2024/02/03 01:26:52;;;;;;;13.30;3.80;;;;;;;7.62;60.55;99232.48;104376;1256;60562;-58
2024/02/03 01:30:03;;;;;;;17.60;4.30;;;;;;;7.60;60.57;99227.30;104741;1256;74023;-58
2024/02/03 01:36:24;;;;;;;10.90;3.80;;;;;;;7.60;60.81;99203.95;104662;1268;74975;-57
2024/02/03 01:38:55;;;;;;;14.00;4.40;;;;;;;7.66;60.62;99196.41;105083;1252;61834;-58
2024/02/03 01:41:37;;;;;;;10.40;3.80;;;;;;;7.61;61.09;99189.42;104674;1267;60816;-58
2024/02/03 01:44:48;;;;;;;11.70;4.30;;;;;;;7.59;61.16;99194.20;104806;1257;73661;-58
2024/02/03 01:54:05;;;;;;;13.50;4.00;;;;;;;7.89;60.47;99171.07;104570;1253;60764;-58
2024/02/03 01:57:17;;;;;;;10.30;3.20;;;;;;;7.77;63.13;99168.05;104627;1254;60518;-58
2024/02/03 02:00:29;;;;;;;12.10;4.20;;;;;;;7.68;67.87;99160.56;104858;1257;73693;-58
2024/02/03 02:03:40;;;;;;;11.60;4.90;;;;;;;7.68;66.60;99152.54;104871;1251;69329;-58
2024/02/03 02:06:51;;;;;;;18.70;4.60;;;;;;;7.54;67.12;99146.09;104651;1252;72918;-58
2024/02/03 02:10:02;;;;;;;11.30;3.70;;;;;;;7.68;66.39;99142.94;104350;1253;61123;-58
2024/02/03 02:13:16;;;;;;;14.10;4.70;;;;;;;7.60;67.41;99138.54;104372;1253;60520;-57
2024/02/03 02:19:06;;;;;;;13.20;4.10;;;;;;;7.70;69.79;99137.44;104440;1275;69338;-58
2024/02/03 02:25:28;;;;;;;12.50;5.20;;;;;;;7.79;70.52;99125.73;104462;1253;60715;-58
2024/02/03 02:32:21;;;;;;;8.60;3.80;;;;;;;7.94;68.01;99121.11;104412;1253;75300;-58
2024/02/03 02:34:48;;;;;;;12.10;3.50;;;;;;;7.86;68.81;99121.65;104464;1263;70236;-57
2024/02/03 02:41:53;;;;;;;18.80;4.50;;;;;;;14.64;61.33;99089.06;104478;1256;60862;-57
2024/02/03 02:45:11;;;;;;;15.20;4.40;;;;;;;13.65;57.05;99092.45;104614;1253;60563;-58
2024/02/03 02:52:08;;;;;;;12.30;4.30;;;;;;;12.99;57.16;99084.27;104669;1256;68429;-58
2024/02/03 02:55:22;;;;;;;8.50;3.80;;;;;;;12.72;56.15;99080.45;105031;1253;73258;-62
2024/02/03 02:58:06;;;;;;;13.60;4.20;;;;;;;12.56;57.58;99069.42;104652;1251;60986;-59
2024/02/03 03:12:00;;;;;;;16.80;4.50;;;;;;;9.30;71.61;99050.80;104428;1254;74050;-58
2024/02/03 03:15:11;;;;;;;10.20;4.10;;;;;;;9.47;76.15;99040.89;105602;1253;60493;-57
2024/02/03 03:24:23;;;;;;;13.20;4.60;;;;;;;9.04;82.35;99029.44;104618;1255;70092;-57
2024/02/03 07:11:05;;;;;;;9.30;6.90;;;;;;;11.34;64.37;98599.33;104206;1262;73560;-61
2024/02/03 07:13:41;;;;;;;10.00;6.90;;;;;;;11.30;68.08;98587.48;103975;1264;60656;-60
2024/02/03 07:16:52;;;;;;;10.20;7.20;;;;;;;11.54;64.30;98577.72;104237;1267;60718;-62
2024/02/03 07:19:25;;;;;;;10.90;6.90;;;;;;;9.88;82.21;98569.67;104072;1264;73218;-64
2024/02/03 07:21:58;;;;;;;12.30;7.60;;;;;;;9.39;100.00;98566.92;104536;1262;70077;-61
2024/02/03 07:25:09;;;;;;;9.10;6.70;;;;;;;10.11;89.80;98559.90;104834;1259;72267;-61
2024/02/03 07:27:42;;;;;;;9.60;6.80;;;;;;;9.52;90.60;98567.75;104097;1264;60744;-59
2024/02/03 07:30:16;;;;;;;8.70;6.50;;;;;;;9.43;96.44;98563.71;105289;1260;60009;-61
2024/02/03 07:33:09;;;;;;;8.50;6.60;;;;;;;9.13;93.42;98563.64;104494;1260;72592;-62
2024/02/03 07:46:56;;;;;;;10.80;6.80;;;;;;;9.18;98.13;98545.71;104090;1262;60215;-60
2024/02/03 07:54:27;;;;;;;8.20;6.90;;;;;;;9.89;92.42;98536.67;104085;1259;71327;-61
2024/02/03 07:57:00;;;;;;;11.30;7.40;;;;;;;9.97;85.60;98529.56;104477;1265;71505;-59
2024/02/03 07:59:30;;;;;;;9.70;6.60;;;;;;;10.24;82.23;98525.20;104117;1259;60727;-60
2024/02/03 08:20:03;;;;;;;10.90;7.10;;;;;;;10.69;72.36;98489.59;104687;1253;59985;-61
2024/02/03 08:26:23;;;;;;;7.80;6.70;;;;;;;10.57;77.41;98478.92;104904;1254;70008;-61
2024/02/03 08:29:33;;;;;;;9.30;7.00;;;;;;;10.61;74.57;98475.50;105142;1257;72688;-61
2024/02/03 08:32:13;;;;;;;9.00;6.00;;;;;;;10.65;73.16;98477.54;105249;1256;61072;-61
2024/02/03 08:34:46;;;;;;;7.00;6.00;;;;;;;10.65;72.94;98469.80;105922;1255;60477;-61
2024/02/03 08:45:12;;;;;;;7.40;6.60;;;;;;;10.82;72.33;98458.45;104922;1255;72792;-61
2024/02/03 08:51:27;;;;;;;8.90;6.70;;;;;;;10.64;74.73;98434.34;104837;1256;60105;-61
2024/02/03 08:57:30;;;;;;;12.60;7.20;;;;;;;10.12;80.88;98437.27;106178;1253;70642;-61
2024/02/03 09:03:52;;;;;;;7.30;6.00;;;;;;;10.75;78.82;98413.66;105374;1257;60686;-59
2024/02/03 09:06:50;;;;;;;6.90;6.20;;;;;;;10.71;77.38;98411.62;106301;1255;59762;-62
2024/02/03 09:09:26;;;;;;;9.90;5.90;;;;;;;10.68;78.53;98406.86;105006;1260;73835;-60
2024/02/03 09:11:59;;;;;;;7.50;6.30;;;;;;;10.81;81.24;98403.77;105639;1254;69630;-61
2024/02/03 09:14:29;;;;;;;6.20;5.40;;;;;;;10.75;78.46;98397.02;105114;1258;73743;-61
2024/02/03 09:20:13;;;;;;;6.30;5.70;;;;;;;10.70;77.65;98388.02;105044;1258;60048;-59
2024/02/03 09:26:29;;;;;;;7.00;5.30;;;;;;;10.71;77.99;98367.61;105437;1255;69668;-61
2024/02/03 09:29:02;;;;;;;7.10;5.70;;;;;;;10.62;79.10;98368.54;104837;1272;72458;-61
2024/02/03 09:43:54;;;;;;;6.80;5.90;;;;;;;11.01;76.86;98327.33;104837;1255;69976;-60
2024/02/03 09:46:21;;;;;;;5.90;5.30;;;;;;;11.01;76.79;98328.73;105326;1254;72999;-60
2024/02/03 09:48:47;;;;;;;5.00;4.50;;;;;;;10.90;77.95;98323.83;105001;1266;61910;-60
2024/02/03 09:51:24;;;;;;;8.10;6.00;;;;;;;10.80;80.15;98327.43;104722;1254;60118;-60
2024/02/03 09:53:59;;;;;;;7.10;5.80;;;;;;;10.61;82.39;98332.52;105232;1256;72736;-60
2024/02/03 10:00:20;;;;;;;5.90;5.30;;;;;;;11.77;71.76;98311.16;105134;1259;74131;-66
2024/02/03 10:02:47;;;;;;;6.30;5.40;;;;;;;11.91;70.12;98303.17;104377;1254;60886;-64
2024/02/03 10:12:42;;;;;;;5.40;4.00;;;;;;;11.81;71.28;98286.35;104449;1272;69720;-60
2024/02/03 10:19:03;;;;;;;5.30;4.70;;;;;;;12.02;71.38;98276.27;104716;1257;60685;-60
2024/02/03 10:25:59;;;;;;;5.40;4.20;;;;;;;12.18;69.69;98256.05;104298;1255;72240;-62
2024/02/03 10:31:23;;;;;;;5.10;4.70;;;;;;;12.26;69.34;98255.98;105103;1257;72889;-59
2024/02/03 10:41:26;;;;;;;4.60;4.20;;;;;;;12.10;70.14;98242.30;104571;1256;73037;-60
2024/02/03 10:44:37;;;;;;;4.40;4.00;;;;;;;11.91;75.03;98233.34;104710;1254;69153;-61
2024/02/03 10:47:49;;;;;;;7.60;3.70;;;;;;;12.27;72.08;98228.81;104151;1257;71254;-59
2024/02/03 10:53:35;;;;;;;4.80;4.30;;;;;;;12.09;71.70;98236.96;104402;1264;59780;-60
2024/02/03 10:56:09;;;;;;;4.20;3.40;;;;;;;11.11;83.34;98234.77;107045;1253;73484;-61
2024/02/03 10:59:20;;;;;;;3.90;3.50;;;;;;;11.16;86.57;98228.61;105304;1253;69465;-61
2024/02/03 11:02:37;;;;;;;3.70;3.40;;;;;;;10.85;89.77;98232.31;104356;1255;73031;-60
2024/02/03 11:05:24;;;;;;;4.60;3.60;;;;;;;10.91;93.13;98219.47;104342;1257;62941;-60
2024/02/03 11:08:35;;;;;;;3.50;3.00;;;;;;;10.87;93.36;98225.30;104786;1258;60255;-60
2024/02/03 11:14:51;;;;;;;6.00;4.10;;;;;;;11.43;86.58;98216.83;104671;1253;70536;-59
2024/02/03 11:21:07;;;;;;;3.60;3.30;;;;;;;11.22;89.38;98211.41;104642;1253;60905;-59
2024/02/03 11:31:09;;;;;;;5.40;4.70;;;;;;;11.26;91.70;98209.37;104737;1259;69878;-61
2024/02/03 11:37:27;;;;;;;8.10;5.90;;;;;;;11.03;95.08;98208.30;105502;1252;62506;-62
2024/02/03 11:40:26;;;;;;;4.90;4.50;;;;;;;11.07;95.03;98217.16;106350;1252;60520;-61
2024/02/03 11:48:23;;;;;;;2.90;2.60;;;;;;;11.31;94.47;98207.80;104350;1262;69129;-61
2024/02/03 11:55:27;;;;;;;3.50;3.20;;;;;;;11.20;97.07;98207.48;104928;1254;61148;-67
2024/02/03 12:04:44;;;;;;;3.20;2.90;;;;;;;11.33;98.03;98200.14;104893;1256;70148;-71
2024/02/03 12:10:59;;;;;;;6.00;3.50;;;;;;;11.30;99.65;98197.67;106357;1255;60979;-69
2024/02/03 12:27:42;;;;;;;3.90;3.30;;;;;;;11.24;100.00;98179.15;104899;1253;64372;-61
2024/02/03 12:30:25;;;;;;;3.90;3.50;;;;;;;12.08;93.92;98173.62;106558;1252;59832;-59
2024/02/03 12:40:15;;;;;;;5.00;3.40;;;;;;;11.28;100.00;98161.91;104670;1253;74212;-64
2024/02/03 12:47:46;;;;;;;3.70;3.30;;;;;;;12.24;98.33;98165.12;104569;1252;61707;-60
2024/02/03 12:50:59;;;;;;;3.70;3.40;;;;;;;12.36;96.17;98167.02;104456;1266;74188;-62
2024/02/03 12:57:17;;;;;;;3.50;3.20;;;;;;;12.66;91.87;98161.52;104676;1258;73068;-64
2024/02/03 13:03:25;;;;;;;5.90;3.60;;;;;;;11.79;100.00;98173.97;104507;1251;63520;-61
2024/02/03 13:08:51;;;;;;;4.00;3.60;;;;;;;11.91;100.00;98171.69;104933;1254;69303;-61
2024/02/03 13:11:24;;;;;;;5.00;3.40;;;;;;;11.61;100.00;98175.05;105107;1256;72712;-61
2024/02/03 13:14:12;;;;;;;3.30;3.00;;;;;;;11.61;100.00;98178.73;105772;1253;60740;-61
2024/02/03 13:17:17;;;;;;;3.50;3.20;;;;;;;12.41;100.00;98177.59;104970;1258;60744;-63
2024/02/03 13:19:48;;;;;;;4.20;3.80;;;;;;;12.12;100.00;98180.55;105168;1252;73585;-65
2024/02/03 13:22:58;;;;;;;4.00;3.70;;;;;;;12.34;100.00;98182.85;104383;1256;70435;-61
2024/02/03 13:25:25;;;;;;;4.60;3.50;;;;;;;12.32;100.00;98181.58;105640;1256;73027;-61
2024/02/03 13:27:52;;;;;;;4.60;4.20;;;;;;;12.47;100.00;98181.73;104567;1254;60828;-61
2024/02/03 13:30:26;;;;;;;3.80;3.50;;;;;;;12.70;99.64;98179.95;105030;1255;60543;-61
2024/02/03 13:32:53;;;;;;;5.00;3.70;;;;;;;13.17;96.24;98180.45;104726;1253;74118;-64
2024/02/03 13:35:40;;;;;;;6.80;6.20;;;;;;;13.17;92.66;98184.00;104676;1253;69376;-63
2024/02/03 13:38:45;;;;;;;4.30;3.90;;;;;;;13.28;91.61;98181.09;105022;1255;72756;-62
2024/02/03 13:41:17;;;;;;;5.20;4.70;;;;;;;13.25;90.07;98175.52;104424;1270;60549;-63
2024/02/03 13:43:50;;;;;;;5.00;4.50;;;;;;;13.35;89.52;98176.33;104952;1251;60475;-62
2024/02/03 13:46:18;;;;;;;6.60;4.60;;;;;;;13.15;92.27;98174.31;105458;1253;73769;-63
2024/02/03 13:49:03;;;;;;;4.70;4.20;;;;;;;13.11;93.94;98171.27;104448;1253;70849;-62
2024/02/03 13:51:50;;;;;;;3.90;3.60;;;;;;;13.44;91.06;98170.20;104467;1257;73030;-62
2024/02/03 13:54:57;;;;;;;4.10;3.80;;;;;;;13.47;91.20;98167.54;104917;1252;60556;-62
2024/02/03 13:58:03;;;;;;;4.20;3.80;;;;;;;13.67;88.91;98160.09;104901;1251;60447;-60
2024/02/03 14:00:36;;;;;;;4.70;3.70;;;;;;;13.80;86.10;98157.64;104948;1256;73430;-60
2024/02/03 14:03:21;;;;;;;3.80;3.50;;;;;;;13.74;89.04;98157.64;104368;1263;71384;-60
2024/02/03 14:05:54;;;;;;;3.80;3.50;;;;;;;13.88;86.47;98157.75;104437;1257;73000;-61
2024/02/03 14:08:21;;;;;;;3.80;3.40;;;;;;;13.79;87.85;98151.41;104938;1255;60988;-63
2024/02/03 14:10:49;;;;;;;;;;;;;;;13.84;88.75;98150.15;104899;1252;60556;-61
2024/02/03 14:13:53;;;;;;;4.00;2.90;;;;;;;13.94;87.70;98152.13;104349;1259;73694;-62
2024/02/03 14:16:30;;;;;;;3.10;2.80;;;;;;;14.19;86.52;98148.91;104639;1275;69901;-61
2024/02/03 14:18:59;;;;;;;3.10;2.70;;;;;;;14.23;87.26;98151.38;105024;1258;72660;-61
2024/02/03 14:21:26;;;;;;;2.60;2.40;;;;;;;14.50;84.95;98149.87;105009;1265;60991;-62
2024/02/03 14:24:00;;;;;;;3.00;2.50;;;;;;;14.69;82.78;98155.77;104889;1254;60533;-61
2024/02/03 14:27:06;;;;;;;2.70;2.40;;;;;;;14.75;82.10;98157.78;104538;1254;73568;-61
2024/02/03 14:29:44;;;;;;;2.00;1.90;;;;;;;14.64;83.51;98158.48;104509;1256;70112;-62
2024/02/03 14:32:12;;;;;;;2.60;2.00;;;;;;;14.65;85.03;98165.42;104536;1256;72733;-64
2024/02/03 14:34:56;;;;;;;2.10;1.90;;;;;;;14.54;88.06;98168.98;104364;1251;60944;-62
2024/02/03 14:37:38;;;;;;;2.50;2.20;;;;;;;14.43;91.99;98170.73;104416;1264;60589;-60
2024/02/03 14:40:06;;;;;;;4.30;2.20;;;;;;;14.72;86.86;98171.05;104407;1261;73654;-60
2024/02/03 14:43:01;;;;;;;18.60;14.20;;;;;;;14.75;86.09;98173.75;104594;1256;69477;-58
2024/02/03 14:45:28;;;;;;;2.70;2.40;;;;;;;14.69;86.67;98174.98;104609;1267;72907;-58
2024/02/03 14:48:38;;;;;;;5.90;4.90;;;;;;;14.72;86.21;98172.59;104337;1253;61262;-59
2024/02/03 14:51:46;;;;;;;3.60;3.10;;;;;;;14.78;85.58;98174.43;104874;1270;59947;-59
2024/02/03 14:54:19;;;;;;;8.50;6.00;;;;;;;14.84;85.39;98174.98;105126;1258;72640;-59
2024/02/03 14:57:05;;;;;;;4.20;3.50;;;;;;;14.81;85.70;98180.02;104333;1275;70804;-59
2024/02/03 14:59:50;;;;;;;2.60;2.40;;;;;;;14.80;86.81;98175.37;104747;1254;72819;-59
2024/02/03 15:02:17;;;;;;;3.00;2.00;;;;;;;14.87;86.18;98172.46;104320;1257;60987;-60
2024/02/03 15:05:24;;;;;;;2.20;2.00;;;;;;;14.96;84.57;98172.75;104869;1256;60553;-61
2024/02/03 15:07:51;;;;;;;2.20;2.00;;;;;;;14.96;85.14;98170.10;104349;1259;74317;-61
2024/02/03 15:10:56;;;;;;;2.70;2.30;;;;;;;15.15;82.98;98171.11;104696;1260;69486;-61
2024/02/03 15:13:23;;;;;;;2.40;2.20;;;;;;;15.42;79.43;98175.39;104609;1256;72760;-68
2024/02/03 15:15:49;;;;;;;3.40;2.00;;;;;;;15.36;79.11;98175.52;104912;1256;61336;-66
2024/02/03 15:18:16;;;;;;;3.00;2.40;;;;;;;15.46;79.17;98173.45;104602;1254;60790;-67
2024/02/03 15:20:44;;;;;;;2.50;2.00;;;;;;;15.43;79.07;98171.94;104377;1256;74283;-67
2024/02/03 15:23:29;;;;;;;2.80;2.50;;;;;;;15.61;77.34;98172.17;105028;1256;69589;-67
2024/02/03 15:26:05;;;;;;;4.20;3.20;;;;;;;15.60;76.27;98175.04;105200;1256;72066;-67
2024/02/03 15:28:50;;;;;;;5.10;3.10;;;;;;;15.57;76.79;98178.98;104691;1256;60471;-66
2024/02/03 15:31:35;;;;;;;4.90;3.10;;;;;;;15.48;77.59;98181.44;104801;1253;60776;-67
2024/02/03 15:34:08;;;;;;;4.90;3.80;;;;;;;15.62;76.58;98182.14;105025;1256;74358;-66
2024/02/03 15:36:36;;;;;;;6.00;4.20;;;;;;;15.75;74.91;98184.75;105055;1257;69385;-68
2024/02/03 15:39:59;;;;;;;4.70;3.80;;;;;;;15.89;73.46;98188.95;104788;1254;75303;-68
2024/02/03 15:43:09;;;;;;;3.90;3.50;;;;;;;15.80;73.59;98186.13;104955;1255;61129;-68
2024/02/03 15:45:48;;;;;;;4.30;3.70;;;;;;;15.52;75.97;98187.77;104652;1257;60469;-60
2024/02/03 15:48:15;;;;;;;3.80;3.20;;;;;;;15.09;81.25;98188.95;104639;1257;73610;-59
2024/02/03 15:51:20;;;;;;;3.50;2.70;;;;;;;15.07;82.30;98188.39;104871;1256;70413;-58
2024/02/03 15:53:50;;;;;;;2.60;2.40;;;;;;;14.94;83.19;98184.02;105831;1256;73550;-60
2024/02/03 15:56:56;;;;;;;3.20;2.60;;;;;;;14.66;85.57;98191.64;104863;1258;61123;-60
2024/02/03 16:00:09;;;;;;;9.40;6.60;;;;;;;15.14;84.82;98196.45;105843;1257;62109;-63
2024/02/03 16:03:09;;;;;;;8.00;6.60;;;;;;;15.63;76.26;98197.75;104597;1255;74589;-63
2024/02/03 16:05:37;;;;;;;4.80;4.20;;;;;;;15.45;76.40;98201.05;105195;1256;70625;-60
2024/02/03 16:08:10;;;;;;;;;;;;;;;15.31;77.24;98207.88;105343;1254;73182;-60
2024/02/03 16:11:15;;;;;;;4.90;3.50;;;;;;;15.49;75.63;98205.48;105283;1260;61752;-59
2024/02/03 16:14:00;;;;;;;3.30;2.90;;;;;;;15.34;76.58;98214.34;104595;1256;61407;-60
2024/02/03 16:17:07;;;;;;;2.90;2.70;;;;;;;15.20;78.06;98210.92;105095;1256;73979;-67
2024/02/03 16:19:41;;;;;;;3.30;2.80;;;;;;;15.10;79.25;98204.73;106023;1252;68234;-63
2024/02/03 16:22:14;;;;;;;3.00;2.60;;;;;;;15.21;78.76;98205.77;104831;1256;71665;-60
2024/02/03 16:24:41;;;;;;;2.90;2.50;;;;;;;15.31;77.52;98208.80;105857;1256;61561;-63
2024/02/03 16:27:09;;;;;;;3.00;2.60;;;;;;;15.43;76.08;98207.64;105015;1253;60469;-61
2024/02/03 16:29:54;;;;;;;2.20;2.00;;;;;;;15.20;77.85;98205.80;105822;1255;74838;-62
2024/02/03 16:32:40;;;;;;;;;;;;;;;15.09;79.90;98206.41;105314;1256;69186;-61
2024/02/03 16:35:44;;;;;;;3.30;2.30;;;;;;;15.02;81.23;98211.41;105583;1256;72739;-61
2024/02/03 16:38:55;;;;;;;2.40;2.20;;;;;;;15.22;79.95;98212.70;105219;1255;60225;-61
2024/02/03 16:42:08;;;;;;;2.80;2.30;;;;;;;15.32;78.31;98215.27;105153;1253;60477;-59
2024/02/03 16:44:35;;;;;;;2.70;2.50;;;;;;;15.41;77.24;98215.38;106139;1253;74733;-59
2024/02/03 16:47:40;;;;;;;3.40;2.70;;;;;;;15.50;76.08;98218.49;106477;1254;71933;-60
2024/02/03 16:50:14;;;;;;;3.10;2.60;;;;;;;15.52;75.53;98207.33;107390;1253;73200;-60
2024/02/03 16:53:19;;;;;;;2.60;2.40;;;;;;;15.41;75.69;98212.92;105973;1255;61274;-60
2024/02/03 16:55:46;;;;;;;2.40;2.00;;;;;;;15.34;76.25;98211.38;105457;1255;60424;-62
2024/02/03 16:58:13;;;;;;;2.40;2.00;;;;;;;15.16;76.33;98216.11;105320;1259;74118;-59
2024/02/03 17:01:09;;;;;;;2.80;2.30;;;;;;;15.00;77.89;98219.02;106683;1253;69655;-60
2024/02/03 17:04:17;;;;;;;2.40;2.20;;;;;;;15.20;76.28;98218.17;106876;1255;71384;-60
2024/02/03 17:07:10;;;;;;;2.60;2.00;;;;;;;14.38;85.87;98222.14;105541;1253;60894;-60
2024/02/03 17:09:37;;;;;;;2.00;1.80;;;;;;;14.89;80.85;98222.52;104515;1256;60476;-60
2024/02/03 17:12:16;;;;;;;3.50;2.20;;;;;;;15.06;78.93;98226.67;104718;1255;74247;-60
2024/02/03 17:14:43;;;;;;;2.10;1.80;;;;;;;14.95;79.46;98226.47;104527;1257;68828;-60
2024/02/03 17:18:06;;;;;;;7.50;1.80;;;;;;;14.84;81.50;98223.84;104626;1274;72239;-60
2024/02/03 17:21:18;;;;;;;2.00;1.90;;;;;;;14.63;83.95;98223.60;104695;1255;61122;-60
2024/02/03 17:23:46;;;;;;;2.90;2.50;;;;;;;14.38;86.77;98222.84;105591;1256;61684;-60
2024/02/03 17:26:58;;;;;;;3.30;2.50;;;;;;;14.34;88.46;98228.73;104992;1257;73086;-60
2024/02/03 17:30:09;;;;;;;4.80;2.90;;;;;;;14.45;88.90;98230.53;106219;1256;70662;-61
2024/02/03 17:33:19;;;;;;;3.40;2.30;;;;;;;14.69;85.96;98231.54;106666;1255;73267;-61
2024/02/03 17:35:46;;;;;;;2.50;2.30;;;;;;;14.89;81.88;98230.98;105910;1254;62220;-60
2024/02/03 17:38:53;;;;;;;2.70;2.50;;;;;;;14.85;81.64;98228.19;105215;1254;61211;-60
2024/02/03 17:41:27;;;;;;;2.80;2.40;;;;;;;14.78;81.74;98234.44;106692;1256;73651;-60
2024/02/03 17:43:54;;;;;;;4.40;2.30;;;;;;;14.71;83.86;98238.31;106200;1256;69404;-61
2024/02/03 17:46:59;;;;;;;2.30;2.00;;;;;;;14.69;83.84;98239.15;105037;1266;72764;-60
2024/02/03 17:49:37;;;;;;;2.30;2.00;;;;;;;14.67;84.49;98233.05;105746;1251;62507;-60
2024/02/03 17:52:11;;;;;;;3.20;2.70;;;;;;;14.53;86.24;98229.50;105600;1254;61276;-60
2024/02/03 17:55:18;;;;;;;2.40;2.20;;;;;;;14.51;88.05;98238.88;105594;1258;74799;-60
2024/02/03 17:57:46;;;;;;;2.40;2.20;;;;;;;14.87;84.97;98241.58;105130;1256;71014;-60
2024/02/03 18:00:13;;;;;;;2.80;2.60;;;;;;;15.13;81.96;98238.54;104819;1256;73007;-59
2024/02/03 18:03:18;;;;;;;2.60;2.20;;;;;;;15.00;82.75;98233.96;105292;1267;63101;-60
2024/02/03 18:05:55;;;;;;;2.50;2.00;;;;;;;14.94;84.55;98232.69;104917;1254;62265;-60
2024/02/03 18:08:22;;;;;;;1.70;1.60;;;;;;;14.53;89.07;98227.47;104923;1255;75839;-60
2024/02/03 18:11:27;;;;;;;2.60;2.30;;;;;;;14.47;91.64;98231.64;105233;1251;70717;-60
2024/02/03 18:17:07;;;;;;;2.10;1.90;;;;;;;13.14;100.00;98228.91;102098;1291;603442;-59
2024/02/03 18:20:22;;;;;;;2.00;1.80;;;;;;;14.16;100.00;98226.17;104648;1265;60792;-59
2024/02/03 18:23:36;;;;;;;2.00;1.80;;;;;;;14.36;99.49;98218.36;104429;1259;60522;-60
2024/02/03 18:26:04;;;;;;;2.00;1.20;;;;;;;14.65;98.41;98219.25;105264;1260;72070;-60
2024/02/03 18:29:10;;;;;;;1.60;1.30;;;;;;;14.96;92.56;98227.82;103969;1265;69535;-59
2024/02/03 18:31:44;;;;;;;2.20;1.50;;;;;;;14.49;95.91;98245.23;103511;1259;72899;-59
2024/02/03 18:35:08;;;;;;;2.30;1.00;;;;;;;14.32;98.68;98236.33;104443;1257;62584;-59
2024/02/03 18:37:42;;;;;;;0.80;0.80;;;;;;;14.28;99.11;98224.52;105116;1263;60109;-60
2024/02/03 18:40:47;;;;;;;1.50;1.00;;;;;;;14.50;96.75;98225.77;104817;1262;72207;-60
2024/02/03 18:43:33;;;;;;;8.00;1.20;;;;;;;14.58;95.44;98220.17;104183;1269;68439;-60
2024/02/03 18:46:20;;;;;;;0.80;0.80;;;;;;;14.58;94.62;98216.65;104581;1259;71333;-61
2024/02/03 18:49:44;;;;;;;1.40;1.10;;;;;;;14.33;96.66;98226.18;104466;1259;60283;-61
2024/02/03 18:52:12;;;;;;;1.30;1.20;;;;;;;14.57;93.87;98229.25;105186;1257;59870;-61
2024/02/03 18:55:40;;;;;;;1.30;1.20;;;;;;;14.53;93.36;98241.33;104825;1257;72302;-61
2024/02/03 18:58:49;;;;;;;2.20;2.00;;;;;;;15.01;88.42;98242.58;104380;1258;71723;-60
2024/02/03 19:02:13;;;;;;;2.70;2.10;;;;;;;14.86;87.39;98241.88;104702;1259;73989;-60
2024/02/03 19:04:59;;;;;;;3.10;2.50;;;;;;;14.62;91.64;98247.67;105205;1261;62592;-61
2024/02/03 19:07:45;;;;;;;3.60;2.50;;;;;;;14.58;91.26;98241.65;104652;1274;60431;-60
2024/02/03 19:10:51;;;;;;;3.00;2.50;;;;;;;14.54;92.25;98240.41;104331;1262;73218;-61
2024/02/03 19:14:04;;;;;;;3.90;2.70;;;;;;;14.64;91.14;98241.73;104895;1258;69392;-60
2024/02/03 19:16:35;;;;;;;2.50;2.10;;;;;;;14.67;89.71;98235.45;104627;1261;72979;-60
2024/02/03 19:19:03;;;;;;;2.50;2.10;;;;;;;14.58;90.63;98237.98;104619;1261;60917;-60
2024/02/03 19:21:53;;;;;;;2.40;2.20;;;;;;;14.52;91.33;98243.39;104616;1259;60075;-60
2024/02/03 19:24:21;;;;;;;4.80;1.90;;;;;;;14.52;92.29;98244.46;104213;1259;72174;-61
2024/02/03 19:26:49;;;;;;;2.90;2.30;;;;;;;14.44;92.66;98244.73;104565;1263;69774;-60
2024/02/03 19:30:13;;;;;;;2.50;2.30;;;;;;;14.37;93.63;98248.08;104463;1259;73969;-60
2024/02/03 19:33:25;;;;;;;5.30;1.80;;;;;;;14.58;92.97;98249.96;104450;1265;60690;-60
2024/02/03 19:35:59;;;;;;;1.70;1.60;;;;;;;14.90;89.21;98240.50;104727;1261;61236;-62
2024/02/03 19:39:04;;;;;;;3.80;1.70;;;;;;;15.05;86.85;98239.90;104233;1263;75041;-59
2024/02/03 19:42:16;;;;;;;1.60;1.50;;;;;;;15.20;85.65;98233.70;105220;1257;70956;-60
2024/02/03 19:44:53;;;;;;;1.40;1.30;;;;;;;15.22;84.36;98232.33;104589;1260;73288;-60
2024/02/03 19:47:41;;;;;;;;;;;;;;;15.39;83.77;98254.92;104842;1258;61316;-59
2024/02/03 19:50:09;;;;;;;1.60;1.50;;;;;;;15.46;83.56;98250.10;104838;1264;59829;-60
2024/02/03 19:52:40;;;;;;;2.00;1.60;;;;;;;15.36;82.09;98247.42;104714;1257;73182;-60
2024/02/03 19:55:45;;;;;;;2.30;1.60;;;;;;;15.27;81.85;98250.64;105806;1260;69342;-60
2024/02/03 19:58:59;;;;;;;1.60;1.50;;;;;;;14.95;83.84;98236.36;105389;1253;72594;-61
2024/02/03 20:01:33;;;;;;;2.30;2.00;;;;;;;14.99;84.85;98238.65;104753;1256;61275;-60
2024/02/03 20:04:03;;;;;;;3.10;1.80;;;;;;;15.10;84.16;98238.98;104597;1258;60025;-61
2024/02/03 20:06:31;;;;;;;2.40;2.00;;;;;;;15.05;84.69;98235.66;104511;1257;73625;-60
2024/02/03 20:09:18;;;;;;;2.40;2.20;;;;;;;15.06;83.44;98236.70;104737;1256;68881;-60
2024/02/03 20:12:42;;;;;;;3.20;2.40;;;;;;;14.99;84.62;98245.56;106071;1253;72412;-60
2024/02/03 20:15:22;;;;;;;2.90;2.50;;;;;;;15.06;83.95;98243.39;105190;1258;60927;-60
2024/02/03 20:17:50;;;;;;;2.40;2.10;;;;;;;14.94;84.76;98248.95;105019;1258;60565;-60
2024/02/03 20:21:14;;;;;;;4.50;2.70;;;;;;;14.91;85.51;98249.88;104974;1254;74481;-60
2024/02/03 20:24:28;;;;;;;3.30;2.30;;;;;;;14.87;86.23;98252.73;105102;1258;69679;-60
2024/02/03 20:27:03;;;;;;;2.60;2.40;;;;;;;15.00;85.17;98253.71;104736;1253;72698;-60
2024/02/03 20:30:27;;;;;;;2.80;2.50;;;;;;;15.15;82.59;98254.60;105633;1254;60791;-58
2024/02/03 20:32:55;;;;;;;2.40;2.20;;;;;;;15.18;82.87;98258.60;105844;1253;59989;-60
2024/02/03 20:36:19;;;;;;;3.80;2.90;;;;;;;15.42;80.89;98257.31;105383;1254;74410;-59
2024/02/03 20:38:47;;;;;;;2.70;2.40;;;;;;;15.59;78.02;98257.30;105185;1263;69742;-59
2024/02/03 20:42:11;;;;;;;4.30;3.00;;;;;;;15.45;78.51;98247.89;105229;1256;72899;-58
2024/02/03 20:45:22;;;;;;;3.20;2.80;;;;;;;15.11;82.30;98248.80;104531;1258;61328;-58
2024/02/03 20:47:51;;;;;;;2.60;2.30;;;;;;;14.74;85.23;98244.96;105595;1254;60471;-59
2024/02/03 20:50:56;;;;;;;2.50;2.30;;;;;;;14.74;85.97;98243.19;104822;1258;72857;-59
2024/02/03 20:54:11;;;;;;;3.00;2.70;;;;;;;14.60;87.71;98251.40;105041;1253;69103;-59
2024/02/03 20:56:41;;;;;;;2.90;2.70;;;;;;;14.54;88.46;98252.73;105091;1255;72735;-59
2024/02/03 20:59:49;;;;;;;3.60;3.10;;;;;;;14.59;87.72;98253.41;104690;1260;60504;-59
2024/02/03 21:02:59;;;;;;;3.60;3.30;;;;;;;14.37;88.62;98249.86;104865;1258;60007;-59
2024/02/03 21:05:30;;;;;;;3.30;3.00;;;;;;;14.20;90.33;98248.77;104702;1258;73135;-58
2024/02/03 21:08:16;;;;;;;3.20;2.80;;;;;;;14.20;90.05;98254.39;104711;1269;73407;-60
2024/02/03 21:11:02;;;;;;;3.00;2.80;;;;;;;14.16;91.23;98258.02;104819;1255;74006;-60